Time;durP1;ratioP1;P1;durP2;ratioP2;P2;SDS_P1;SDS_P2;PMS_P1;PMS_P2;Temp;Humidity;BMP_temperature;BMP_pressure;BME280_temperature;BME280_humidity;BME280_pressure;Samples;Min_cycle;Max_cycle;Signal;HPM_P1;HPM_P2
2021/09/04 00:01:45;;;;;;;18.30;10.77;;;13.90;81.40;;;;;;4803123;29;20062;-73
2021/09/04 00:04:13;;;;;;;18.48;10.68;;;13.90;81.40;;;;;;4804672;29;20520;-73
2021/09/04 00:06:41;;;;;;;19.05;10.98;;;13.90;81.40;;;;;;4802678;29;20055;-73
2021/09/04 00:09:09;;;;;;;20.60;10.95;;;13.80;81.50;;;;;;4788235;29;20510;-73
2021/09/04 00:11:37;;;;;;;17.02;9.80;;;13.80;81.50;;;;;;4803837;29;20047;-73
2021/09/04 00:14:06;;;;;;;14.07;10.27;;;13.80;81.60;;;;;;4803783;29;20069;-73
2021/09/04 00:16:35;;;;;;;20.77;10.95;;;13.80;81.70;;;;;;4803038;29;20049;-73
2021/09/04 00:19:02;;;;;;;23.33;11.38;;;13.80;81.70;;;;;;4817817;29;20172;-73
2021/09/04 00:21:30;;;;;;;16.55;10.48;;;13.80;81.70;;;;;;4803667;29;20081;-71
2021/09/04 00:23:57;;;;;;;14.50;9.98;;;13.80;81.70;;;;;;4804061;29;20077;-73
2021/09/04 00:26:27;;;;;;;17.95;10.45;;;13.80;81.70;;;;;;4817658;29;20069;-72
2021/09/04 00:28:55;;;;;;;19.00;10.77;;;13.70;81.80;;;;;;4817163;29;20122;-73
2021/09/04 00:31:23;;;;;;;16.38;9.88;;;13.80;81.80;;;;;;4804933;29;20055;-74
2021/09/04 00:33:51;;;;;;;19.48;10.98;;;13.70;81.80;;;;;;4818011;29;20047;-74
2021/09/04 00:36:19;;;;;;;17.63;9.90;;;13.70;81.90;;;;;;4806928;29;20498;-73
2021/09/04 00:38:47;;;;;;;20.13;10.00;;;13.70;81.90;;;;;;4808127;29;20490;-72
2021/09/04 00:41:21;;;;;;;16.92;9.32;;;13.60;81.80;;;;;;4807564;29;20062;-72
2021/09/04 00:43:49;;;;;;;16.00;9.50;;;13.70;81.80;;;;;;4806439;29;20065;-72
2021/09/04 00:46:17;;;;;;;18.38;9.93;;;13.70;81.90;;;;;;4807533;29;20490;-72
2021/09/04 00:48:44;;;;;;;18.33;10.18;;;13.70;81.80;;;;;;4807251;29;20055;-72
2021/09/04 00:51:16;;;;;;;17.75;9.93;;;13.70;81.70;;;;;;4807893;29;20051;-72
2021/09/04 00:53:44;;;;;;;16.10;10.20;;;13.70;81.70;;;;;;4807399;29;20062;-72
2021/09/04 00:56:14;;;;;;;17.48;9.70;;;13.60;81.80;;;;;;4808060;29;20090;-71
2021/09/04 00:58:42;;;;;;;15.18;9.55;;;13.60;81.80;;;;;;4807309;29;20394;-73
2021/09/04 01:01:11;;;;;;;15.45;9.20;;;13.70;81.80;;;;;;4805986;29;20055;-72
2021/09/04 01:03:39;;;;;;;19.95;9.57;;;13.60;81.80;;;;;;4808024;29;20043;-73
2021/09/04 01:06:10;;;;;;;16.58;9.55;;;13.70;81.80;;;;;;4807538;29;20501;-72
2021/09/04 01:08:38;;;;;;;17.38;9.35;;;13.70;81.80;;;;;;4807609;29;20065;-72
2021/09/04 01:11:06;;;;;;;17.23;8.75;;;13.60;81.80;;;;;;4807669;29;20062;-72
2021/09/04 01:13:38;;;;;;;14.25;9.35;;;13.70;81.70;;;;;;4806977;29;20504;-72
2021/09/04 01:16:06;;;;;;;16.70;8.82;;;13.70;81.70;;;;;;4806273;29;20059;-72
2021/09/04 01:18:33;;;;;;;16.60;9.10;;;13.70;81.60;;;;;;4806948;29;20060;-72
2021/09/04 01:21:06;;;;;;;22.40;9.20;;;13.70;81.50;;;;;;4807402;29;20146;-72
2021/09/04 01:23:34;;;;;;;15.30;9.30;;;13.70;81.40;;;;;;4808766;29;20047;-72
2021/09/04 01:26:10;;;;;;;17.60;9.40;;;13.70;81.40;;;;;;4807128;29;20054;-73
2021/09/04 01:28:39;;;;;;;18.77;9.45;;;13.70;81.40;;;;;;4807019;29;20046;-72
2021/09/04 01:31:08;;;;;;;16.75;7.78;;;13.70;81.30;;;;;;4807313;29;20054;-72
2021/09/04 01:33:43;;;;;;;14.85;8.20;;;13.70;81.30;;;;;;4806898;29;20062;-72
2021/09/04 01:36:12;;;;;;;14.40;8.45;;;13.70;81.20;;;;;;4807330;29;20418;-72
2021/09/04 01:38:40;;;;;;;14.93;8.75;;;13.70;81.10;;;;;;4820782;29;20046;-72
2021/09/04 01:41:07;;;;;;;13.88;8.82;;;13.70;81.10;;;;;;4819794;29;20393;-72
2021/09/04 01:43:35;;;;;;;14.30;8.45;;;13.70;81.10;;;;;;4805026;29;20050;-72
2021/09/04 01:46:05;;;;;;;14.77;8.63;;;13.70;81.10;;;;;;4805696;29;20050;-72
2021/09/04 01:48:33;;;;;;;15.80;8.68;;;13.70;81.10;;;;;;4806981;29;20043;-72
2021/09/04 01:51:00;;;;;;;14.63;8.05;;;13.70;81.00;;;;;;4805948;29;20065;-72
2021/09/04 01:53:28;;;;;;;14.68;8.35;;;13.70;81.00;;;;;;4805621;29;20047;-72
2021/09/04 01:55:56;;;;;;;15.23;8.35;;;13.70;80.90;;;;;;4806249;29;20058;-73
2021/09/04 01:58:23;;;;;;;13.20;8.65;;;13.70;80.90;;;;;;4819982;29;20050;-72
2021/09/04 02:00:51;;;;;;;12.15;8.65;;;13.70;80.90;;;;;;4806543;29;20358;-73
2021/09/04 02:03:19;;;;;;;15.65;9.13;;;13.60;80.90;;;;;;4806460;29;20054;-74
2021/09/04 02:05:47;;;;;;;16.00;8.52;;;13.60;80.90;;;;;;4806461;29;20059;-73
2021/09/04 02:08:14;;;;;;;14.70;8.98;;;13.60;81.00;;;;;;4806648;29;20069;-73
2021/09/04 02:10:42;;;;;;;14.70;8.95;;;13.60;81.00;;;;;;4805767;29;20054;-73
2021/09/04 02:13:09;;;;;;;14.88;8.55;;;13.60;81.00;;;;;;4805606;29;20039;-73
2021/09/04 02:15:37;;;;;;;13.25;9.00;;;13.60;81.00;;;;;;4801549;29;20125;-73
2021/09/04 02:18:06;;;;;;;14.00;8.65;;;13.60;81.10;;;;;;4806380;29;20058;-72
2021/09/04 02:20:35;;;;;;;16.17;9.05;;;13.50;81.10;;;;;;4806306;29;20607;-72
2021/09/04 02:23:07;;;;;;;13.70;8.50;;;13.50;81.10;;;;;;4806463;29;20047;-72
2021/09/04 02:25:36;;;;;;;16.27;9.05;;;13.50;81.10;;;;;;4805889;29;20046;-72
2021/09/04 02:28:07;;;;;;;16.48;8.52;;;13.50;81.10;;;;;;4804557;29;20051;-72
2021/09/04 02:30:36;;;;;;;14.98;9.38;;;13.50;81.10;;;;;;4806154;29;20065;-73
2021/09/04 02:33:04;;;;;;;16.58;8.90;;;13.50;81.10;;;;;;4805304;29;20059;-73
2021/09/04 02:35:31;;;;;;;12.82;8.00;;;13.50;81.10;;;;;;4789608;29;20062;-73
2021/09/04 02:38:02;;;;;;;15.82;9.13;;;13.50;81.10;;;;;;4819731;29;20150;-73
2021/09/04 02:40:30;;;;;;;16.83;8.68;;;13.50;81.10;;;;;;4805875;29;20064;-73
2021/09/04 02:42:58;;;;;;;16.83;8.02;;;13.50;81.10;;;;;;4805354;29;20050;-73
2021/09/04 02:45:26;;;;;;;15.27;9.05;;;13.40;81.10;;;;;;4804945;29;20054;-73
2021/09/04 02:47:54;;;;;;;15.52;9.25;;;13.40;81.20;;;;;;4805534;29;20489;-73
2021/09/04 02:50:22;;;;;;;15.27;9.13;;;13.40;81.20;;;;;;4805311;29;20050;-73
2021/09/04 02:52:51;;;;;;;13.70;8.43;;;13.30;81.20;;;;;;4819201;29;20481;-73
2021/09/04 02:55:18;;;;;;;13.85;9.32;;;13.30;81.30;;;;;;4804776;29;20043;-73
2021/09/04 02:57:46;;;;;;;13.57;8.77;;;13.30;81.40;;;;;;4805834;29;20528;-73
2021/09/04 03:00:14;;;;;;;15.10;8.27;;;13.30;81.50;;;;;;4801585;29;20395;-73
2021/09/04 03:02:46;;;;;;;16.23;9.23;;;13.30;81.60;;;;;;4799791;29;20070;-73
2021/09/04 03:05:14;;;;;;;12.45;9.05;;;13.30;81.60;;;;;;4818851;29;20051;-73
2021/09/04 03:07:41;;;;;;;17.75;9.20;;;13.30;81.70;;;;;;4791788;29;20074;-73
2021/09/04 03:10:11;;;;;;;17.50;9.25;;;13.20;81.80;;;;;;4805257;29;20063;-73
2021/09/04 03:12:39;;;;;;;13.30;9.40;;;13.30;81.80;;;;;;4804426;29;20051;-73
2021/09/04 03:15:07;;;;;;;17.70;9.18;;;13.20;81.90;;;;;;4805213;29;20401;-73
2021/09/04 03:17:35;;;;;;;17.10;9.35;;;13.20;82.00;;;;;;4809725;29;20052;-73
2021/09/04 03:20:06;;;;;;;16.33;9.50;;;13.20;81.90;;;;;;4803273;29;20051;-73
2021/09/04 03:22:34;;;;;;;18.67;9.25;;;13.20;82.00;;;;;;4804828;29;20095;-73
2021/09/04 03:25:03;;;;;;;17.15;9.50;;;13.20;82.10;;;;;;4805061;29;20057;-73
2021/09/04 03:27:32;;;;;;;15.48;9.52;;;13.20;82.10;;;;;;4804959;29;20396;-73
2021/09/04 03:30:00;;;;;;;14.90;9.38;;;13.20;82.10;;;;;;4818090;29;20054;-73
2021/09/04 03:32:27;;;;;;;14.35;8.75;;;13.20;82.10;;;;;;4803294;29;20049;-73
2021/09/04 03:34:55;;;;;;;12.95;8.77;;;13.20;82.10;;;;;;4803357;29;20508;-73
2021/09/04 03:37:23;;;;;;;19.42;9.55;;;13.20;82.00;;;;;;4803552;29;20043;-73
2021/09/04 03:39:50;;;;;;;14.18;9.32;;;13.30;82.10;;;;;;4804231;29;20381;-73
2021/09/04 03:42:19;;;;;;;15.55;9.93;;;13.20;82.00;;;;;;4804163;29;20055;-72
2021/09/04 03:44:47;;;;;;;17.35;10.27;;;13.20;82.10;;;;;;4804528;29;20409;-73
2021/09/04 03:47:15;;;;;;;18.75;10.30;;;13.30;82.00;;;;;;4804334;29;20054;-73
2021/09/04 03:49:43;;;;;;;17.50;10.25;;;13.30;82.00;;;;;;4804804;29;20043;-73
2021/09/04 03:52:11;;;;;;;19.33;10.48;;;13.30;82.00;;;;;;4785259;29;20485;-73
2021/09/04 03:54:39;;;;;;;15.60;10.23;;;13.30;82.10;;;;;;4799113;29;20059;-73
2021/09/04 03:57:07;;;;;;;17.10;10.38;;;13.20;82.20;;;;;;4818533;29;20066;-73
2021/09/04 03:59:34;;;;;;;19.92;10.82;;;13.20;82.20;;;;;;4804848;29;20046;-73
2021/09/04 04:02:02;;;;;;;19.17;11.25;;;13.20;82.30;;;;;;4804235;29;20059;-73
2021/09/04 04:04:31;;;;;;;21.80;11.30;;;13.20;82.30;;;;;;4804202;29;20063;-73
2021/09/04 04:06:58;;;;;;;18.85;10.43;;;13.10;82.40;;;;;;4803840;29;20062;-72
2021/09/04 04:09:26;;;;;;;20.58;11.82;;;13.20;82.50;;;;;;4803374;29;20054;-72
2021/09/04 04:11:54;;;;;;;25.02;12.52;;;13.10;82.50;;;;;;4804892;29;20054;-71
2021/09/04 04:14:21;;;;;;;22.75;12.80;;;13.10;82.50;;;;;;4803981;29;20504;-73
2021/09/04 04:16:49;;;;;;;24.67;13.32;;;13.10;82.60;;;;;;4804017;29;20051;-72
2021/09/04 04:19:17;;;;;;;24.77;13.13;;;13.10;82.60;;;;;;4802949;29;20055;-72
2021/09/04 04:21:46;;;;;;;29.92;14.10;;;13.10;82.70;;;;;;4803780;29;20516;-72
2021/09/04 04:24:13;;;;;;;30.92;14.75;;;13.10;82.70;;;;;;4800914;29;20418;-72
2021/09/04 04:26:41;;;;;;;32.65;16.48;;;13.00;82.80;;;;;;4817799;29;20507;-72
2021/09/04 04:29:09;;;;;;;27.15;15.73;;;13.10;82.90;;;;;;4803544;29;20059;-72
2021/09/04 04:31:38;;;;;;;39.60;19.25;;;13.10;82.90;;;;;;4804566;29;20050;-73
2021/09/04 04:34:07;;;;;;;45.33;20.75;;;13.10;83.00;;;;;;4803238;29;20054;-73
2021/09/04 04:36:34;;;;;;;45.17;21.70;;;13.00;83.00;;;;;;4804483;29;20054;-73
2021/09/04 04:39:02;;;;;;;44.70;22.35;;;13.10;83.00;;;;;;4804911;29;20047;-73
2021/09/04 04:41:29;;;;;;;51.30;21.88;;;13.00;83.00;;;;;;4818314;29;20062;-73
2021/09/04 04:43:57;;;;;;;48.10;23.52;;;13.10;83.00;;;;;;4816577;29;20046;-75
2021/09/04 04:46:25;;;;;;;44.90;22.55;;;13.00;83.10;;;;;;4803710;29;20051;-78
2021/09/04 04:48:53;;;;;;;48.42;23.30;;;13.10;83.10;;;;;;4803888;29;20489;-74
2021/09/04 04:51:23;;;;;;;43.03;23.00;;;13.10;83.20;;;;;;4803991;29;20062;-73
2021/09/04 04:53:52;;;;;;;42.53;22.50;;;13.00;83.20;;;;;;4802795;29;20413;-73
2021/09/04 04:56:19;;;;;;;41.70;22.35;;;13.10;83.30;;;;;;4804663;29;20420;-72
2021/09/04 04:58:47;;;;;;;48.38;23.30;;;13.10;83.30;;;;;;4801871;29;20409;-73
2021/09/04 05:01:16;;;;;;;40.83;22.48;;;13.00;83.40;;;;;;4803997;29;20054;-73
2021/09/04 05:03:45;;;;;;;42.50;23.13;;;13.10;83.40;;;;;;4817627;29;20054;-73
2021/09/04 05:06:12;;;;;;;42.70;23.48;;;13.10;83.40;;;;;;4804465;29;20043;-73
2021/09/04 05:08:40;;;;;;;42.17;23.60;;;13.10;83.50;;;;;;4804083;29;20059;-73
2021/09/04 05:11:08;;;;;;;46.20;23.15;;;13.10;83.60;;;;;;4803988;29;20392;-73
2021/09/04 05:13:36;;;;;;;42.55;22.60;;;13.10;83.60;;;;;;4803660;29;20063;-72
2021/09/04 05:16:04;;;;;;;39.45;23.27;;;13.10;83.60;;;;;;4804280;29;20509;-73
2021/09/04 05:18:32;;;;;;;42.45;23.58;;;13.10;83.70;;;;;;4805984;29;20059;-72
2021/09/04 05:21:00;;;;;;;53.03;27.10;;;13.10;83.70;;;;;;4807816;29;20055;-72
2021/09/04 05:23:30;;;;;;;56.88;30.88;;;13.10;83.70;;;;;;4806876;29;20046;-72
2021/09/04 05:25:58;;;;;;;65.50;34.20;;;13.10;83.70;;;;;;4806537;29;20097;-72
2021/09/04 05:28:26;;;;;;;111.97;61.05;;;13.20;83.70;;;;;;4807053;29;20055;-73
2021/09/04 05:30:54;;;;;;;49.10;27.27;;;13.20;83.80;;;;;;4806796;29;20493;-72
2021/09/04 05:33:21;;;;;;;45.03;25.40;;;13.20;83.80;;;;;;4819937;29;20107;-72
2021/09/04 05:35:49;;;;;;;48.00;27.27;;;13.20;83.80;;;;;;4807068;29;20054;-72
2021/09/04 05:38:16;;;;;;;47.38;26.58;;;13.20;83.80;;;;;;4807416;29;20061;-72
2021/09/04 05:40:44;;;;;;;50.50;27.60;;;13.20;83.80;;;;;;4798579;29;20058;-72
2021/09/04 05:43:11;;;;;;;52.67;28.33;;;13.20;83.80;;;;;;4807276;29;20051;-72
2021/09/04 05:45:39;;;;;;;56.65;27.60;;;13.20;83.90;;;;;;4806934;29;20054;-72
2021/09/04 05:48:07;;;;;;;52.65;27.77;;;13.20;83.90;;;;;;4806442;29;20051;-72
2021/09/04 05:50:34;;;;;;;47.45;28.33;;;13.30;83.90;;;;;;4820404;29;20047;-74
2021/09/04 05:53:02;;;;;;;50.28;27.40;;;13.20;83.90;;;;;;4805098;29;20059;-72
2021/09/04 05:55:29;;;;;;;55.53;28.13;;;13.30;83.90;;;;;;4806531;29;20481;-72
2021/09/04 05:57:57;;;;;;;48.70;26.65;;;13.30;83.80;;;;;;4805933;29;20374;-72
2021/09/04 06:00:25;;;;;;;49.88;27.02;;;13.30;83.90;;;;;;4806777;29;20051;-72
2021/09/04 06:02:53;;;;;;;54.45;26.90;;;13.30;83.80;;;;;;4806443;29;20051;-72
2021/09/04 06:05:21;;;;;;;57.55;27.23;;;13.30;83.90;;;;;;4806473;29;20051;-74
2021/09/04 06:07:48;;;;;;;55.78;27.05;;;13.30;83.90;;;;;;4806754;29;20058;-72
2021/09/04 06:10:16;;;;;;;44.55;26.52;;;13.30;83.80;;;;;;4806409;29;20058;-73
2021/09/04 06:12:43;;;;;;;47.17;25.83;;;13.40;83.80;;;;;;4806365;29;20058;-73
2021/09/04 06:15:11;;;;;;;44.88;23.75;;;13.40;83.70;;;;;;4806163;29;20520;-73
2021/09/04 06:17:39;;;;;;;48.25;25.15;;;13.40;83.70;;;;;;4804774;29;20058;-72
2021/09/04 06:20:08;;;;;;;44.25;25.00;;;13.50;83.60;;;;;;4805056;29;20153;-72
2021/09/04 06:22:36;;;;;;;49.15;25.63;;;13.50;83.50;;;;;;4803831;29;20058;-72
2021/09/04 06:25:04;;;;;;;49.17;24.88;;;13.60;83.50;;;;;;4819456;29;20377;-72
2021/09/04 06:27:33;;;;;;;48.47;25.75;;;13.60;83.40;;;;;;4805213;29;20047;-72
2021/09/04 06:30:01;;;;;;;48.55;24.45;;;13.60;83.40;;;;;;4804259;29;20420;-72
2021/09/04 06:32:30;;;;;;;42.58;24.25;;;13.70;83.30;;;;;;4803253;29;20046;-72
2021/09/04 06:34:58;;;;;;;38.40;22.88;;;13.70;83.30;;;;;;4806493;29;20058;-72
2021/09/04 06:37:26;;;;;;;38.38;22.73;;;13.80;83.20;;;;;;4806390;29;20047;-76
2021/09/04 06:39:54;;;;;;;36.03;20.63;;;13.80;83.10;;;;;;4805719;29;20054;-75
2021/09/04 06:42:22;;;;;;;34.20;21.08;;;13.80;83.00;;;;;;4805411;29;20077;-72
2021/09/04 06:44:50;;;;;;;34.20;20.40;;;13.80;83.00;;;;;;4804587;29;20058;-72
2021/09/04 06:47:18;;;;;;;29.45;18.73;;;13.90;82.80;;;;;;4807009;29;20058;-72
2021/09/04 06:49:45;;;;;;;29.33;18.90;;;13.90;82.80;;;;;;4783536;29;20390;-73
2021/09/04 06:52:13;;;;;;;33.00;18.90;;;14.00;82.70;;;;;;4815033;29;20087;-72
2021/09/04 06:54:41;;;;;;;33.17;18.33;;;14.00;82.50;;;;;;4804753;29;20062;-72
2021/09/04 06:57:08;;;;;;;33.05;19.25;;;14.10;82.40;;;;;;4805506;29;20430;-72
2021/09/04 06:59:36;;;;;;;31.35;17.55;;;14.20;82.30;;;;;;4806143;29;20047;-72
2021/09/04 07:02:04;;;;;;;29.30;16.95;;;14.30;82.10;;;;;;4804462;29;20520;-73
2021/09/04 07:04:31;;;;;;;31.17;16.95;;;14.30;82.00;;;;;;4805565;29;20058;-72
2021/09/04 07:07:04;;;;;;;31.95;17.13;;;14.30;81.90;;;;;;4803700;29;20425;-72
2021/09/04 07:09:32;;;;;;;27.73;16.95;;;14.40;81.80;;;;;;4805875;29;20063;-73
2021/09/04 07:12:00;;;;;;;27.25;16.33;;;14.50;81.50;;;;;;4798197;29;20063;-72
2021/09/04 07:14:28;;;;;;;34.95;17.23;;;14.60;81.50;;;;;;4805761;29;20058;-72
2021/09/04 07:16:55;;;;;;;27.63;16.80;;;14.60;81.50;;;;;;4805386;29;20062;-72
2021/09/04 07:19:23;;;;;;;25.52;15.73;;;14.60;81.30;;;;;;4805909;29;20142;-73
2021/09/04 07:21:50;;;;;;;24.75;15.52;;;14.70;81.20;;;;;;4805746;29;20497;-72
2021/09/04 07:24:18;;;;;;;22.63;13.57;;;14.80;81.00;;;;;;4805782;29;20058;-72
2021/09/04 07:26:45;;;;;;;23.25;13.52;;;14.80;80.80;;;;;;4806092;29;20047;-72
2021/09/04 07:29:13;;;;;;;22.70;13.45;;;14.80;80.50;;;;;;4805566;29;20069;-72
2021/09/04 07:31:41;;;;;;;20.67;13.50;;;14.90;80.30;;;;;;4805489;29;20065;-72
2021/09/04 07:34:08;;;;;;;21.60;12.85;;;14.90;80.10;;;;;;4805649;29;20512;-72
2021/09/04 07:36:36;;;;;;;21.33;13.30;;;15.00;80.00;;;;;;4805097;29;20057;-72
2021/09/04 07:39:04;;;;;;;20.05;12.45;;;15.00;79.90;;;;;;4805521;29;20046;-72
2021/09/04 07:41:32;;;;;;;26.27;12.93;;;15.10;79.70;;;;;;4805010;29;20054;-72
2021/09/04 07:43:59;;;;;;;22.48;13.23;;;15.10;79.40;;;;;;4804985;29;20055;-72
2021/09/04 07:46:27;;;;;;;25.08;13.60;;;15.20;79.30;;;;;;4804810;29;20521;-72
2021/09/04 07:48:54;;;;;;;20.23;12.13;;;15.30;79.10;;;;;;4805239;29;20043;-72
2021/09/04 07:51:22;;;;;;;25.10;13.02;;;15.30;79.00;;;;;;4805341;29;20067;-72
2021/09/04 07:53:49;;;;;;;19.98;12.52;;;15.30;78.70;;;;;;4805309;29;20062;-72
2021/09/04 07:56:17;;;;;;;20.23;12.40;;;15.40;78.60;;;;;;4805104;29;20051;-72
2021/09/04 07:58:47;;;;;;;16.90;12.32;;;15.40;78.30;;;;;;4804331;29;20078;-72
2021/09/04 08:01:15;;;;;;;19.20;11.48;;;15.40;78.10;;;;;;4805220;29;20047;-72
2021/09/04 08:03:43;;;;;;;18.13;12.10;;;15.50;78.00;;;;;;4805051;29;20066;-73
2021/09/04 08:06:10;;;;;;;17.92;12.85;;;15.60;77.80;;;;;;4804406;29;20050;-72
2021/09/04 08:08:40;;;;;;;20.38;12.05;;;15.60;77.50;;;;;;4819112;29;20520;-72
2021/09/04 08:11:08;;;;;;;19.50;12.32;;;15.60;77.30;;;;;;4804954;29;20051;-72
2021/09/04 08:13:36;;;;;;;16.45;12.30;;;15.70;77.20;;;;;;4804722;29;20055;-72
2021/09/04 08:16:03;;;;;;;26.48;12.73;;;15.70;77.20;;;;;;4804120;29;20050;-72
2021/09/04 08:18:31;;;;;;;20.85;13.02;;;15.80;77.10;;;;;;4804865;29;20074;-72
2021/09/04 08:20:59;;;;;;;18.27;12.20;;;15.90;76.90;;;;;;4805034;29;20054;-72
2021/09/04 08:23:26;;;;;;;18.33;12.13;;;16.00;76.70;;;;;;4803597;29;20057;-73
2021/09/04 08:25:53;;;;;;;18.33;11.18;;;16.10;76.40;;;;;;4804593;29;20050;-73
2021/09/04 08:28:21;;;;;;;17.85;11.57;;;16.20;75.70;;;;;;4803527;29;20058;-72
2021/09/04 08:30:49;;;;;;;20.15;11.40;;;16.20;75.50;;;;;;4803788;29;20047;-73
2021/09/04 08:33:16;;;;;;;17.95;12.20;;;16.30;75.40;;;;;;4804894;29;20051;-71
2021/09/04 08:35:44;;;;;;;18.90;12.38;;;16.40;75.30;;;;;;4804787;29;20043;-72
2021/09/04 08:38:11;;;;;;;21.52;11.93;;;16.40;75.10;;;;;;4804998;29;20051;-72
2021/09/04 08:40:44;;;;;;;18.02;12.25;;;16.50;75.00;;;;;;4818600;29;20513;-72
2021/09/04 08:43:12;;;;;;;17.15;11.45;;;16.70;74.80;;;;;;4804703;29;20047;-72
2021/09/04 08:45:44;;;;;;;22.23;11.65;;;16.70;74.50;;;;;;4804321;29;20059;-72
2021/09/04 08:48:13;;;;;;;17.70;11.27;;;16.90;73.90;;;;;;4804135;29;20050;-73
2021/09/04 08:50:41;;;;;;;23.10;11.57;;;17.00;73.60;;;;;;4818079;29;20410;-72
2021/09/04 08:53:09;;;;;;;21.80;11.45;;;17.10;73.40;;;;;;4806827;29;20066;-72
2021/09/04 08:55:36;;;;;;;15.13;10.65;;;17.20;73.20;;;;;;4807986;29;20043;-72
2021/09/04 08:58:04;;;;;;;20.42;10.13;;;17.30;72.40;;;;;;4821721;29;20062;-72
2021/09/04 09:00:32;;;;;;;18.48;10.18;;;17.30;72.00;;;;;;4805463;29;20524;-72
2021/09/04 09:03:01;;;;;;;15.00;9.38;;;17.30;71.80;;;;;;4798626;29;20058;-72
2021/09/04 09:05:38;;;;;;;14.98;9.40;;;17.50;71.00;;;;;;4807508;29;20057;-72
2021/09/04 09:08:07;;;;;;;13.80;9.63;;;17.60;70.50;;;;;;4807287;29;20050;-72
2021/09/04 09:10:37;;;;;;;15.00;9.30;;;17.80;70.20;;;;;;4806794;29;20062;-72
2021/09/04 09:13:05;;;;;;;17.35;9.15;;;17.90;69.80;;;;;;4820540;29;20055;-72
2021/09/04 09:15:37;;;;;;;12.57;8.70;;;18.00;69.50;;;;;;4805991;29;20054;-72
2021/09/04 09:18:10;;;;;;;13.27;8.15;;;18.20;68.60;;;;;;4806301;29;20058;-72
2021/09/04 09:20:57;;;;;;;;;;;18.20;67.80;;;;;;4807692;29;20058;-72
2021/09/04 09:23:25;;;;;;;14.02;8.60;;;18.20;67.30;;;;;;4805518;29;19938;-72
2021/09/04 09:25:52;;;;;;;12.50;8.90;;;18.30;67.30;;;;;;4806760;29;20055;-72
2021/09/04 09:28:22;;;;;;;11.43;7.78;;;18.40;67.00;;;;;;4806475;29;20086;-71
2021/09/04 09:30:52;;;;;;;12.07;7.75;;;18.50;66.40;;;;;;4806700;29;20063;-71
2021/09/04 09:33:21;;;;;;;13.65;7.38;;;18.60;65.60;;;;;;4807426;29;20484;-72
2021/09/04 09:35:55;;;;;;;12.32;7.72;;;18.70;65.10;;;;;;4807624;29;20490;-73
2021/09/04 09:38:28;;;;;;;12.65;6.93;;;18.80;64.90;;;;;;4807910;29;20047;-73
2021/09/04 09:40:57;;;;;;;14.18;8.02;;;18.90;63.80;;;;;;4805503;29;20055;-73
2021/09/04 09:43:29;;;;;;;10.75;7.60;;;19.00;63.70;;;;;;4807527;29;20055;-73
2021/09/04 09:45:58;;;;;;;9.05;6.82;;;19.10;63.30;;;;;;4805751;29;20078;-73
2021/09/04 09:48:29;;;;;;;11.07;7.15;;;19.10;62.90;;;;;;4806964;29;20138;-72
2021/09/04 09:50:59;;;;;;;10.10;7.45;;;19.20;62.80;;;;;;4807514;29;20039;-72
2021/09/04 09:53:28;;;;;;;10.30;6.93;;;19.30;62.90;;;;;;4807264;29;20053;-72
2021/09/04 09:55:58;;;;;;;11.07;7.25;;;19.30;62.40;;;;;;4807161;29;20042;-71
2021/09/04 09:58:27;;;;;;;14.73;7.75;;;19.40;62.00;;;;;;4807421;29;20051;-72
2021/09/04 10:00:57;;;;;;;12.23;6.88;;;19.40;61.90;;;;;;4821134;29;20058;-73
2021/09/04 10:03:27;;;;;;;11.27;7.32;;;19.40;60.90;;;;;;4806401;29;20069;-72
2021/09/04 10:05:55;;;;;;;10.90;7.72;;;19.30;60.80;;;;;;4805235;29;20059;-72
2021/09/04 10:08:25;;;;;;;12.30;8.00;;;19.30;61.60;;;;;;4807043;29;20058;-73
2021/09/04 10:10:53;;;;;;;10.77;7.45;;;19.30;61.80;;;;;;4806912;29;20047;-72
2021/09/04 10:13:21;;;;;;;12.55;7.85;;;19.30;61.00;;;;;;4807286;29;20370;-72
2021/09/04 10:15:51;;;;;;;13.82;8.38;;;19.10;61.50;;;;;;4806963;29;20073;-73
2021/09/04 10:18:24;;;;;;;14.85;8.60;;;19.00;61.70;;;;;;4806383;29;20060;-73
2021/09/04 10:21:11;;;;;;;14.98;8.80;;;18.70;62.20;;;;;;4805537;29;20066;-73
2021/09/04 10:23:41;;;;;;;14.02;9.30;;;18.40;62.70;;;;;;4798526;29;20062;-72
2021/09/04 10:26:28;;;;;;;14.23;8.45;;;18.20;63.50;;;;;;4806699;29;20329;-72
2021/09/04 10:29:06;;;;;;;12.45;8.13;;;17.90;63.90;;;;;;4806754;29;20382;-72
2021/09/04 10:31:48;;;;;;;13.30;7.60;;;17.80;64.40;;;;;;4806884;29;20058;-73
2021/09/04 10:34:17;;;;;;;11.30;7.65;;;17.70;64.50;;;;;;4806955;29;20058;-72
2021/09/04 10:37:03;;;;;;;17.42;8.70;;;17.70;64.60;;;;;;4806528;29;20049;-71
2021/09/04 10:40:03;;;;;;;12.38;7.53;;;17.60;64.80;;;;;;4806409;29;20057;-71
2021/09/04 10:42:37;;;;;;;13.52;8.00;;;17.70;64.70;;;;;;4820305;29;20042;-71
2021/09/04 10:45:06;;;;;;;;;;;17.70;64.70;;;;;;4805224;29;20062;-71
2021/09/04 10:47:50;;;;;;;12.00;7.90;;;17.70;64.50;;;;;;4806247;29;19936;-71
2021/09/04 10:50:19;;;;;;;12.02;7.25;;;17.80;64.50;;;;;;4806327;29;20062;-72
2021/09/04 10:52:49;;;;;;;12.95;7.78;;;17.80;64.60;;;;;;4806246;29;20078;-72
2021/09/04 10:55:31;;;;;;;16.48;8.15;;;17.80;64.50;;;;;;4805968;29;20061;-72
2021/09/04 10:58:16;;;;;;;16.70;8.75;;;17.80;64.60;;;;;;4819718;29;20394;-72
2021/09/04 11:00:49;;;;;;;13.43;8.65;;;17.80;64.70;;;;;;4804225;29;20077;-72
2021/09/04 11:03:21;;;;;;;12.77;8.75;;;17.90;65.10;;;;;;4806317;29;20531;-72
2021/09/04 11:05:54;;;;;;;13.48;9.27;;;18.00;65.10;;;;;;4804151;29;20061;-72
2021/09/04 11:08:30;;;;;;;14.38;8.82;;;18.20;65.10;;;;;;4804619;29;20047;-72
2021/09/04 11:11:12;;;;;;;15.02;9.45;;;18.40;64.80;;;;;;4804491;29;20058;-72
2021/09/04 11:13:54;;;;;;;14.73;9.48;;;18.70;64.10;;;;;;4806109;29;20063;-72
2021/09/04 11:16:38;;;;;;;13.77;8.80;;;18.90;63.40;;;;;;4819149;29;20066;-72
2021/09/04 11:19:23;;;;;;;15.07;8.95;;;19.10;62.70;;;;;;4805494;29;20058;-71
2021/09/04 11:22:06;;;;;;;12.90;8.20;;;19.20;62.20;;;;;;4805610;29;20058;-72
2021/09/04 11:24:43;;;;;;;10.70;8.45;;;19.30;62.30;;;;;;4805534;29;20054;-72
2021/09/04 11:27:17;;;;;;;11.65;8.57;;;19.40;61.90;;;;;;4804682;29;20046;-71
2021/09/04 11:29:47;;;;;;;13.57;8.85;;;19.60;61.90;;;;;;4805910;29;20423;-73
2021/09/04 11:32:16;;;;;;;12.07;7.57;;;19.80;61.10;;;;;;4821798;29;20075;-73
2021/09/04 11:34:47;;;;;;;14.90;8.30;;;19.80;60.80;;;;;;4824107;29;20050;-73
2021/09/04 11:37:22;;;;;;;15.65;7.88;;;19.60;60.70;;;;;;4823988;29;20058;-73
2021/09/04 11:39:53;;;;;;;11.75;7.97;;;19.50;60.80;;;;;;4821121;29;20383;-73
2021/09/04 11:42:23;;;;;;;12.20;8.90;;;19.50;60.90;;;;;;4805706;29;20053;-73
2021/09/04 11:44:57;;;;;;;16.15;8.80;;;19.30;60.90;;;;;;4787518;30;20066;-72
2021/09/04 11:47:26;;;;;;;11.10;8.40;;;19.20;61.10;;;;;;4787491;30;20131;-72
2021/09/04 11:49:58;;;;;;;12.30;8.90;;;19.10;61.60;;;;;;4800552;29;20070;-72
2021/09/04 11:52:37;;;;;;;13.68;8.15;;;19.00;62.10;;;;;;4790308;29;20055;-72
2021/09/04 11:55:07;;;;;;;15.77;9.02;;;19.10;61.90;;;;;;4826228;29;20425;-72
2021/09/04 11:57:36;;;;;;;13.32;8.35;;;19.30;61.60;;;;;;4804916;29;20046;-72
2021/09/04 12:00:10;;;;;;;12.32;8.27;;;19.50;61.20;;;;;;4805202;29;20050;-72
2021/09/04 12:02:42;;;;;;;13.10;8.27;;;19.80;60.30;;;;;;4804783;29;20051;-73
2021/09/04 12:05:10;;;;;;;16.70;8.40;;;19.80;60.00;;;;;;4804408;29;20059;-72
2021/09/04 12:07:39;;;;;;;12.65;8.45;;;20.00;59.70;;;;;;4804031;29;20059;-73
2021/09/04 12:10:09;;;;;;;13.45;8.02;;;20.00;58.90;;;;;;4803864;29;20051;-72
2021/09/04 12:12:38;;;;;;;9.05;7.20;;;20.20;58.70;;;;;;4805064;29;20063;-72
2021/09/04 12:15:10;;;;;;;12.32;7.30;;;20.30;58.30;;;;;;4804333;29;20043;-72
2021/09/04 12:17:49;;;;;;;13.25;7.93;;;20.30;57.30;;;;;;4805122;29;20051;-72
2021/09/04 12:20:17;;;;;;;11.90;7.93;;;20.30;56.90;;;;;;4804474;29;20377;-72
2021/09/04 12:22:45;;;;;;;11.35;7.40;;;20.30;56.80;;;;;;4804713;29;20525;-72
2021/09/04 12:25:27;;;;;;;11.30;8.02;;;20.30;56.50;;;;;;4804730;29;20051;-77
2021/09/04 12:28:02;;;;;;;13.13;8.18;;;20.20;56.20;;;;;;4822830;29;20055;-72
2021/09/04 12:30:30;;;;;;;9.95;7.28;;;20.20;56.90;;;;;;4805290;29;20047;-72
2021/09/04 12:33:16;;;;;;;10.95;8.20;;;20.20;57.30;;;;;;4804510;29;20078;-73
2021/09/04 12:35:51;;;;;;;11.32;7.47;;;20.30;57.10;;;;;;4803225;29;20061;-73
2021/09/04 12:38:45;;;;;;;14.43;8.30;;;20.30;57.10;;;;;;4804052;29;20122;-73
2021/09/04 12:41:16;;;;;;;9.98;7.43;;;20.20;56.40;;;;;;4792607;29;20051;-73
2021/09/04 12:43:55;;;;;;;14.88;9.18;;;20.10;56.70;;;;;;4819561;29;20421;-76
2021/09/04 12:46:43;;;;;;;11.77;8.13;;;20.10;56.50;;;;;;4818320;29;20070;-73